Time;durP1;ratioP1;P1;durP2;ratioP2;P2;SDS_P1;SDS_P2;PMS_P1;PMS_P2;Temp;Humidity;BMP_temperature;BMP_pressure;BME280_temperature;BME280_humidity;BME280_pressure;Samples;Min_cycle;Max_cycle;Signal;HPM_P1;HPM_P2
2022/11/28 00:02:26;;;;;;;121.90;49.57;;;;;;;2.15;100.00;101438.58;3623276;80;32815;-87
2022/11/28 00:07:27;;;;;;;145.47;62.93;;;;;;;2.07;100.00;101429.19;3576405;80;98877;-86
2022/11/28 00:12:28;;;;;;;208.03;90.57;;;;;;;1.99;100.00;101429.87;3572080;81;32357;-87
2022/11/28 00:17:29;;;;;;;108.17;48.80;;;;;;;1.93;100.00;101431.60;3559667;81;99030;-86
2022/11/28 00:22:30;;;;;;;116.03;47.67;;;;;;;1.82;100.00;101421.47;3627894;80;31647;-87
2022/11/28 00:27:34;;;;;;;125.37;52.83;;;;;;;1.68;100.00;101416.52;3628276;80;98720;-87
2022/11/28 00:32:35;;;;;;;124.77;51.17;;;;;;;1.62;100.00;101412.27;3636279;80;31810;-87
2022/11/28 00:37:35;;;;;;;113.20;48.20;;;;;;;1.62;100.00;101402.77;3627897;80;98941;-87
2022/11/28 00:42:36;;;;;;;269.80;114.97;;;;;;;1.58;100.00;101393.59;3640788;80;31665;-87
2022/11/28 00:47:37;;;;;;;132.30;59.17;;;;;;;1.45;100.00;101397.05;3622475;80;99018;-87
2022/11/28 00:52:38;;;;;;;119.60;48.23;;;;;;;1.42;100.00;101405.76;3635764;80;31660;-87
2022/11/28 00:57:38;;;;;;;110.97;49.20;;;;;;;1.39;100.00;101395.52;3658592;79;98868;-87
2022/11/28 01:02:39;;;;;;;108.97;44.57;;;;;;;1.35;100.00;101394.48;3669324;79;27880;-87
2022/11/28 01:07:41;;;;;;;95.10;44.17;;;;;;;1.29;100.00;101399.72;3650392;79;98857;-87
2022/11/28 01:12:42;;;;;;;93.00;42.43;;;;;;;1.26;100.00;101388.08;3659892;79;28845;-87
2022/11/28 01:17:43;;;;;;;116.77;50.60;;;;;;;1.15;100.00;101382.54;3662957;79;98629;-87
2022/11/28 01:22:44;;;;;;;127.23;58.40;;;;;;;1.10;100.00;101369.62;3663580;79;35318;-87
2022/11/28 01:27:45;;;;;;;137.60;53.23;;;;;;;1.08;100.00;101360.95;3664340;79;98958;-85
2022/11/28 01:32:45;;;;;;;100.27;46.10;;;;;;;1.02;100.00;101357.52;3668026;79;34818;-87
2022/11/28 01:37:46;;;;;;;105.93;47.70;;;;;;;0.99;100.00;101352.66;3655093;79;99055;-86
2022/11/28 01:42:47;;;;;;;101.03;45.90;;;;;;;1.00;100.00;101346.70;3640228;80;34859;-86
2022/11/28 01:47:51;;;;;;;113.77;46.57;;;;;;;1.02;100.00;101341.79;3632248;79;99158;-86
2022/11/28 01:52:56;;;;;;;112.67;46.87;;;;;;;1.00;100.00;101337.22;3646072;80;35060;-87
2022/11/28 01:57:57;;;;;;;102.30;44.07;;;;;;;0.98;100.00;101342.92;3661493;79;98875;-86
2022/11/28 02:03:06;;;;;;;96.50;47.53;;;;;;;0.97;100.00;101332.37;3670152;79;34890;-87
2022/11/28 02:08:08;;;;;;;158.52;63.28;;;;;;;0.97;100.00;101329.66;3662189;79;30780;-87
2022/11/28 02:13:14;;;;;;;154.23;59.03;;;;;;;0.95;100.00;101327.27;3649903;79;99075;-87
2022/11/28 02:18:30;;;;;;;131.18;54.93;;;;;;;0.87;100.00;101317.59;3669627;79;26582;-87
2022/11/28 02:24:08;;;;;;;92.67;43.47;;;;;;;0.83;100.00;101315.23;3663263;79;99128;-86
2022/11/28 02:29:23;;;;;;;84.03;41.83;;;;;;;0.81;100.00;101309.28;3667928;79;26547;-87
2022/11/28 02:34:38;;;;;;;86.67;40.48;;;;;;;0.80;100.00;101311.73;3654580;79;99122;-86
2022/11/28 02:40:09;;;;;;;80.03;41.60;;;;;;;0.80;100.00;101313.09;3665298;79;25957;-86
2022/11/28 02:45:21;;;;;;;108.03;51.97;;;;;;;0.75;100.00;101305.84;3664595;79;98879;-86
2022/11/28 02:50:27;;;;;;;136.00;58.10;;;;;;;0.73;100.00;101308.58;3650601;79;26639;-86
2022/11/28 02:55:29;;;;;;;;;;;;;;;0.69;100.00;101305.66;3663026;79;98997;-85
2022/11/28 03:00:37;;;;;;;93.90;41.83;;;;;;;0.66;100.00;101300.02;3672198;79;30821;-86
2022/11/28 03:06:01;;;;;;;79.00;39.10;;;;;;;0.57;100.00;101301.73;3657177;79;98883;-86
2022/11/28 03:11:37;;;;;;;84.47;40.13;;;;;;;0.55;100.00;101301.23;3661773;79;26168;-86
2022/11/28 03:16:59;;;;;;;77.33;38.23;;;;;;;0.50;100.00;101287.19;3660633;79;98808;-86
2022/11/28 03:22:17;;;;;;;96.27;44.73;;;;;;;0.45;100.00;101286.45;3659725;79;25977;-86
2022/11/28 03:27:41;;;;;;;83.10;39.20;;;;;;;0.39;100.00;101284.34;3598804;79;98853;-86
2022/11/28 03:32:46;;;;;;;79.63;39.13;;;;;;;0.37;100.00;101284.37;3672966;79;25859;-86
2022/11/28 03:37:53;;;;;;;70.93;36.03;;;;;;;0.30;100.00;101279.86;3648910;79;98667;-87
2022/11/28 03:43:01;;;;;;;72.37;37.97;;;;;;;0.28;100.00;101278.00;3669945;79;26528;-86
2022/11/28 03:48:07;;;;;;;76.90;35.00;;;;;;;0.24;100.00;101271.54;3656942;79;98255;-87
2022/11/28 03:53:21;;;;;;;;;;;;;;;0.18;100.00;101270.77;3652685;79;99058;-87
2022/11/28 03:58:57;;;;;;;74.70;36.20;;;;;;;0.15;100.00;101267.30;3670154;79;28837;-87
2022/11/28 04:04:15;;;;;;;76.37;35.25;;;;;;;0.15;100.00;101262.42;3663807;79;99071;-86
2022/11/28 04:09:24;;;;;;;71.50;36.00;;;;;;;0.09;100.00;101257.63;3552522;79;25921;-86
2022/11/28 04:14:42;;;;;;;89.00;41.40;;;;;;;0.07;100.00;101251.69;3633104;79;99095;-87
2022/11/28 04:19:54;;;;;;;79.17;40.43;;;;;;;0.02;100.00;101244.97;3667777;79;26558;-85
2022/11/28 04:25:03;;;;;;;96.67;46.70;;;;;;;0.01;100.00;101237.95;3662229;79;99057;-86
2022/11/28 04:30:06;;;;;;;84.93;42.63;;;;;;;0.00;100.00;101237.70;3672291;79;26497;-86
2022/11/28 04:35:12;;;;;;;68.52;36.05;;;;;;;-0.05;100.00;101226.92;3660163;79;98848;-85
2022/11/28 04:40:14;;;;;;;67.62;34.33;;;;;;;-0.08;100.00;101225.34;3652836;79;25975;-85
2022/11/28 04:45:23;;;;;;;62.90;32.17;;;;;;;-0.07;100.00;101228.30;3662874;79;99055;-86
2022/11/28 04:50:33;;;;;;;76.35;37.45;;;;;;;-0.05;100.00;101232.91;3670781;79;31402;-85
2022/11/28 04:55:45;;;;;;;77.40;35.70;;;;;;;-0.08;100.00;101230.76;3656766;79;99167;-86
2022/11/28 05:00:49;;;;;;;63.50;30.53;;;;;;;-0.10;100.00;101222.92;3669079;79;26885;-86
2022/11/28 05:05:50;;;;;;;64.80;30.65;;;;;;;-0.10;100.00;101221.57;3650029;79;99246;-86
2022/11/28 05:10:51;;;;;;;64.70;34.90;;;;;;;-0.12;100.00;101227.83;3661918;79;26357;-85
2022/11/28 05:15:52;;;;;;;64.60;30.97;;;;;;;-0.12;100.00;101230.28;3652020;79;99126;-85
2022/11/28 05:20:53;;;;;;;61.33;28.80;;;;;;;-0.17;100.00;101227.05;3656124;79;34829;-86
2022/11/28 05:25:53;;;;;;;65.50;31.57;;;;;;;-0.20;100.00;101224.38;3650653;79;99241;-85
2022/11/28 05:30:59;;;;;;;66.90;30.50;;;;;;;-0.22;100.00;101217.64;3657120;79;34837;-85
2022/11/28 05:36:09;;;;;;;63.33;31.17;;;;;;;-0.29;100.00;101213.69;3620957;79;99295;-85
2022/11/28 05:41:21;;;;;;;59.47;28.17;;;;;;;-0.33;100.00;101211.29;3647043;79;29122;-85
2022/11/28 05:46:22;;;;;;;63.23;30.90;;;;;;;-0.37;100.00;101207.53;3632593;78;99285;-84
2022/11/28 05:51:24;;;;;;;66.50;31.63;;;;;;;-0.36;100.00;101213.45;3631117;80;26222;-85
2022/11/28 05:56:24;;;;;;;62.23;31.77;;;;;;;-0.37;100.00;101204.30;3629599;79;99796;-85
2022/11/28 06:01:28;;;;;;;59.53;28.38;;;;;;;-0.36;100.00;101211.31;3637336;79;35910;-85
2022/11/28 06:06:32;;;;;;;61.23;29.70;;;;;;;-0.37;100.00;101207.53;3619466;80;99329;-85
2022/11/28 06:11:34;;;;;;;57.27;28.07;;;;;;;-0.40;100.00;101195.95;3628484;80;25784;-85
2022/11/28 06:16:35;;;;;;;64.05;29.07;;;;;;;-0.44;100.00;101191.64;3632477;80;99290;-87
2022/11/28 06:21:36;;;;;;;67.30;31.93;;;;;;;-0.47;100.00;101188.95;3640333;80;34809;-86
2022/11/28 06:26:37;;;;;;;57.63;27.93;;;;;;;-0.47;100.00;101188.70;3631460;80;99262;-85
2022/11/28 06:31:40;;;;;;;55.03;29.20;;;;;;;-0.50;100.00;101181.97;3630477;79;34847;-87
2022/11/28 06:36:43;;;;;;;63.80;28.23;;;;;;;-0.49;100.00;101176.03;3624429;79;99150;-85
2022/11/28 06:41:44;;;;;;;56.93;27.50;;;;;;;-0.53;100.00;101167.69;3625469;79;27950;-85
2022/11/28 06:46:44;;;;;;;58.33;27.93;;;;;;;-0.52;100.00;101175.23;3635022;79;99269;-86
2022/11/28 06:51:45;;;;;;;64.00;29.47;;;;;;;-0.52;100.00;101167.12;3631973;80;35026;-85
2022/11/28 06:56:46;;;;;;;62.20;28.23;;;;;;;-0.52;100.00;101173.34;3628890;79;99248;-84
2022/11/28 07:01:48;;;;;;;58.10;27.23;;;;;;;-0.62;100.00;101151.03;3633586;80;34828;-84
2022/11/28 07:06:48;;;;;;;58.43;27.90;;;;;;;-0.62;100.00;101151.03;3626501;79;99343;-85
2022/11/28 07:11:49;;;;;;;58.53;27.10;;;;;;;-0.48;100.00;101164.93;3628619;80;35327;-85
2022/11/28 07:16:50;;;;;;;50.77;25.53;;;;;;;-0.44;100.00;101164.59;3621500;79;99129;-84
2022/11/28 07:21:51;;;;;;;55.70;25.70;;;;;;;-0.43;100.00;101163.53;3632231;80;35351;-85
2022/11/28 07:26:52;;;;;;;54.13;25.45;;;;;;;-0.40;100.00;101167.56;3628475;79;99116;-85
2022/11/28 07:31:52;;;;;;;51.27;23.87;;;;;;;-0.33;100.00;101168.80;3628769;79;32493;-83
2022/11/28 07:36:53;;;;;;;52.47;24.73;;;;;;;-0.29;100.00;101169.06;3628968;79;99126;-84
2022/11/28 07:41:54;;;;;;;50.73;22.93;;;;;;;-0.22;100.00;101172.47;3641965;79;32435;-84
2022/11/28 07:46:55;;;;;;;50.13;25.90;;;;;;;-0.15;100.00;101170.22;3626735;78;99046;-83
2022/11/28 07:51:56;;;;;;;57.07;28.20;;;;;;;-0.07;100.00;101150.66;3639453;80;32447;-84
2022/11/28 07:56:56;;;;;;;57.40;26.77;;;;;;;0.05;100.00;101152.41;3632569;79;99074;-85
2022/11/28 08:01:57;;;;;;;49.33;24.60;;;;;;;0.18;100.00;101157.09;3631000;80;32813;-84
2022/11/28 08:06:58;;;;;;;49.95;22.40;;;;;;;0.31;100.00;101157.75;3625029;79;98815;-85
2022/11/28 08:11:59;;;;;;;50.13;24.93;;;;;;;0.49;100.00;101162.36;3631136;80;26794;-86
2022/11/28 08:17:00;;;;;;;48.87;23.47;;;;;;;0.72;100.00;101153.34;3621192;79;98907;-85
2022/11/28 08:22:01;;;;;;;52.27;25.83;;;;;;;1.00;100.00;101152.35;3629825;80;26008;-87
2022/11/28 08:27:01;;;;;;;53.93;25.67;;;;;;;1.30;100.00;101138.83;3635703;79;98896;-87
2022/11/28 08:32:03;;;;;;;49.17;24.37;;;;;;;1.59;100.00;101142.11;3636711;79;25879;-86
2022/11/28 08:37:03;;;;;;;46.43;24.93;;;;;;;1.90;100.00;101143.11;3659269;79;98878;-86
2022/11/28 08:42:04;;;;;;;42.50;22.43;;;;;;;2.14;100.00;101145.86;3653432;79;26419;-86
2022/11/28 08:47:05;;;;;;;44.30;22.57;;;;;;;2.20;100.00;101143.85;3654228;79;98797;-87
2022/11/28 08:52:06;;;;;;;46.17;22.90;;;;;;;2.25;100.00;101137.74;3660413;79;26177;-88
2022/11/28 08:57:07;;;;;;;43.20;22.10;;;;;;;2.35;100.00;101134.81;3661676;80;98709;-85
2022/11/28 09:02:11;;;;;;;41.80;21.13;;;;;;;2.47;100.00;101143.80;3660537;79;33216;-87
2022/11/28 09:07:12;;;;;;;40.50;19.75;;;;;;;2.67;100.00;101135.98;3658159;79;99232;-87
2022/11/28 09:12:13;;;;;;;39.10;20.90;;;;;;;2.93;100.00;101134.27;3668112;80;33249;-88
2022/11/28 09:17:17;;;;;;;43.03;22.60;;;;;;;3.12;100.00;101125.35;3652361;80;98912;-87
2022/11/28 09:22:18;;;;;;;40.47;21.80;;;;;;;3.35;100.00;101113.89;3658594;79;25953;-86
2022/11/28 09:27:19;;;;;;;48.83;26.00;;;;;;;3.47;100.00;101117.64;3649704;79;99031;-88
2022/11/28 09:32:19;;;;;;;46.83;26.00;;;;;;;3.50;100.00;101113.50;3653917;79;33203;-88
2022/11/28 09:37:21;;;;;;;44.87;23.43;;;;;;;3.58;100.00;101108.09;3624524;79;98745;-87
2022/11/28 09:42:35;;;;;;;186.20;166.70;;;;;;;3.62;100.00;101101.45;3624562;80;33291;-90
2022/11/28 09:47:39;;;;;;;56.37;32.50;;;;;;;3.67;100.00;101100.73;3632770;80;99250;-89
2022/11/28 09:53:00;;;;;;;46.80;27.07;;;;;;;3.90;100.00;101103.64;3636830;80;26190;-89
2022/11/28 09:58:31;;;;;;;54.57;28.70;;;;;;;4.02;100.00;101082.04;3603942;80;98588;-89
2022/11/28 10:03:49;;;;;;;54.50;28.30;;;;;;;3.94;100.00;101081.45;3622010;81;98973;-90
2022/11/28 10:09:10;;;;;;;45.77;24.93;;;;;;;4.16;100.00;101070.42;3630473;80;25975;-90
2022/11/28 10:14:19;;;;;;;49.83;25.90;;;;;;;4.23;100.00;101070.78;3621904;80;99253;-91
2022/11/28 10:19:28;;;;;;;51.10;27.83;;;;;;;4.26;100.00;101070.70;3639772;79;26376;-88
2022/11/28 10:24:37;;;;;;;53.40;27.37;;;;;;;4.35;100.00;101057.87;3627178;78;99257;-89
2022/11/28 10:29:58;;;;;;;52.23;29.03;;;;;;;4.33;100.00;101056.03;3631272;79;26366;-89
2022/11/28 10:35:36;;;;;;;46.58;24.72;;;;;;;4.36;100.00;101056.77;3611914;79;99120;-89
2022/11/28 10:41:16;;;;;;;45.73;24.97;;;;;;;4.46;100.00;101050.42;3625041;79;25912;-90
2022/11/28 10:46:56;;;;;;;49.43;26.23;;;;;;;4.35;100.00;101036.88;3587920;79;99080;-90
2022/11/28 10:52:47;;;;;;;48.10;25.27;;;;;;;4.19;100.00;101036.30;3576439;81;26460;-87
2022/11/28 10:58:20;;;;;;;47.97;24.27;;;;;;;4.13;100.00;101032.95;3578361;80;98886;-86
2022/11/28 11:03:28;;;;;;;47.73;25.33;;;;;;;4.06;100.00;101035.91;3573773;81;99217;-88
2022/11/28 11:08:36;;;;;;;47.80;24.43;;;;;;;3.99;100.00;101026.05;3601988;81;25923;-86
2022/11/28 11:14:05;;;;;;;49.58;25.23;;;;;;;3.98;100.00;101023.87;3576806;80;99149;-86
2022/11/28 11:19:10;;;;;;;48.00;26.13;;;;;;;4.00;100.00;101013.48;3441167;84;29434;-87
2022/11/28 11:24:17;;;;;;;50.73;25.83;;;;;;;4.02;100.00;101018.04;3511175;81;99206;-85
2022/11/28 11:29:34;;;;;;;48.43;24.53;;;;;;;4.06;100.00;101012.20;3569603;81;33439;-86
2022/11/28 11:34:40;;;;;;;47.40;24.40;;;;;;;4.11;100.00;101013.96;3558169;81;99050;-87
2022/11/28 11:39:49;;;;;;;48.65;26.27;;;;;;;4.15;100.00;101008.12;3553670;82;26133;-86
2022/11/28 11:44:51;;;;;;;48.85;24.12;;;;;;;4.17;100.00;101005.31;3550837;82;99014;-85
2022/11/28 11:49:57;;;;;;;46.63;23.83;;;;;;;4.22;100.00;101004.34;3557539;81;26503;-86
2022/11/28 11:55:15;;;;;;;50.25;25.30;;;;;;;4.28;100.00;101003.88;3551187;81;99174;-86
2022/11/28 12:00:25;;;;;;;50.20;24.83;;;;;;;4.32;100.00;101010.27;3557092;81;25916;-86
2022/11/28 12:05:46;;;;;;;49.60;25.23;;;;;;;4.36;100.00;101007.14;3551479;81;99045;-85
2022/11/28 12:11:10;;;;;;;53.43;27.67;;;;;;;4.39;100.00;101005.70;3551505;81;26213;-87
2022/11/28 12:16:48;;;;;;;46.67;25.90;;;;;;;4.42;100.00;101002.34;3557198;80;99148;-87
2022/11/28 12:22:10;;;;;;;46.63;26.10;;;;;;;4.46;100.00;100991.02;3555757;81;33204;-84
2022/11/28 12:27:35;;;;;;;49.27;25.75;;;;;;;4.54;100.00;100982.83;3550764;80;98818;-85
2022/11/28 12:33:16;;;;;;;47.77;25.83;;;;;;;4.56;100.00;100977.05;3554794;81;25916;-86
2022/11/28 12:38:59;;;;;;;72.07;43.00;;;;;;;4.56;100.00;100982.52;3565365;81;26294;-84
2022/11/28 12:44:25;;;;;;;44.88;25.40;;;;;;;4.51;100.00;100969.86;3563006;81;99105;-84
2022/11/28 12:49:43;;;;;;;51.37;25.03;;;;;;;4.51;100.00;100978.04;3614689;81;25936;-85
2022/11/28 12:55:19;;;;;;;44.63;24.85;;;;;;;4.52;100.00;100981.00;3601724;81;99304;-85
2022/11/28 13:00:24;;;;;;;50.17;25.70;;;;;;;4.50;100.00;100975.08;3607247;81;34400;-86
2022/11/28 13:05:48;;;;;;;42.60;23.87;;;;;;;4.48;100.00;100969.71;3604831;80;98915;-85
2022/11/28 13:11:16;;;;;;;42.70;22.80;;;;;;;4.44;100.00;100973.65;3578099;80;26328;-85
2022/11/28 13:16:43;;;;;;;47.23;23.67;;;;;;;4.43;100.00;100972.02;3610971;80;99060;-86
2022/11/28 13:22:24;;;;;;;44.07;23.73;;;;;;;4.49;100.00;100965.86;3615844;81;26425;-88
2022/11/28 13:27:41;;;;;;;46.58;22.85;;;;;;;4.52;100.00;100970.09;3606329;81;98872;-86
2022/11/28 13:33:21;;;;;;;45.43;24.33;;;;;;;4.48;100.00;100953.36;3621843;80;25797;-86
2022/11/28 13:38:46;;;;;;;46.77;24.90;;;;;;;4.41;100.00;100960.66;3610662;80;25849;-85
2022/11/28 13:44:03;;;;;;;45.57;24.17;;;;;;;4.40;100.00;100959.06;3600243;80;99045;-86
2022/11/28 13:49:20;;;;;;;45.57;24.33;;;;;;;4.39;100.00;100962.09;3607153;81;26635;-87
2022/11/28 13:54:26;;;;;;;43.83;24.43;;;;;;;4.37;100.00;100962.41;3617407;80;99224;-86
2022/11/28 13:59:27;;;;;;;;;;;;;;;4.41;100.00;100959.29;3618709;80;25821;-87
2022/11/28 14:04:30;;;;;;;45.70;24.67;;;;;;;4.39;100.00;100962.91;3606385;80;84698;-86
2022/11/28 14:09:54;;;;;;;45.20;22.30;;;;;;;4.34;100.00;100954.09;3605661;80;26530;-87
2022/11/28 14:15:35;;;;;;;42.70;21.42;;;;;;;4.29;100.00;100960.52;3601361;80;99471;-89
2022/11/28 14:20:58;;;;;;;43.50;22.20;;;;;;;4.25;100.00;100954.10;3602498;81;26391;-88
2022/11/28 14:25:59;;;;;;;41.63;20.87;;;;;;;4.15;99.73;100945.47;3602979;80;99073;-87
2022/11/28 14:31:20;;;;;;;40.77;20.97;;;;;;;4.06;98.96;100949.56;3600739;81;33286;-87
2022/11/28 14:36:35;;;;;;;44.73;22.13;;;;;;;3.94;97.35;100948.59;3599057;81;98906;-85
2022/11/28 14:42:08;;;;;;;38.90;18.97;;;;;;;3.83;98.52;100956.26;3610347;81;26157;-86
2022/11/28 14:47:27;;;;;;;39.80;20.62;;;;;;;3.72;98.62;100953.61;3604633;80;98746;-86
2022/11/28 14:52:28;;;;;;;47.60;23.17;;;;;;;3.58;98.68;100958.41;3607020;80;26369;-86
2022/11/28 14:57:34;;;;;;;39.63;20.80;;;;;;;3.45;98.76;100947.08;3616722;80;98768;-85
2022/11/28 15:03:12;;;;;;;39.15;20.75;;;;;;;3.34;99.11;100947.12;3607982;81;26517;-85
2022/11/28 15:08:33;;;;;;;45.83;23.93;;;;;;;3.21;99.33;100948.06;3601717;81;30465;-87
2022/11/28 15:14:05;;;;;;;43.47;21.77;;;;;;;3.05;99.57;100949.61;3603089;80;98864;-86
2022/11/28 15:19:14;;;;;;;47.07;24.10;;;;;;;2.92;99.90;100953.24;3606815;81;26063;-86
2022/11/28 15:24:35;;;;;;;47.67;24.70;;;;;;;2.81;100.00;100949.20;3602921;80;98884;-87
2022/11/28 15:29:36;;;;;;;54.27;26.87;;;;;;;2.69;100.00;100944.09;3613621;81;26397;-87
2022/11/28 15:34:37;;;;;;;50.27;25.03;;;;;;;2.60;100.00;100956.81;3600076;80;99087;-87
2022/11/28 15:39:41;;;;;;;53.80;25.90;;;;;;;2.50;100.00;100959.79;3610202;80;33727;-87
2022/11/28 15:44:42;;;;;;;48.03;25.73;;;;;;;2.41;100.00;100957.02;3606223;80;98911;-86
2022/11/28 15:49:43;;;;;;;52.63;26.33;;;;;;;2.31;100.00;100946.98;3605800;80;33262;-86
2022/11/28 15:54:50;;;;;;;54.57;27.97;;;;;;;2.25;100.00;100953.08;3606661;80;99201;-88
2022/11/28 15:59:51;;;;;;;57.65;27.73;;;;;;;2.20;100.00;100954.55;3614150;80;26283;-87
2022/11/28 16:04:58;;;;;;;51.07;27.77;;;;;;;2.16;100.00;100957.66;3612960;80;99183;-87
2022/11/28 16:10:04;;;;;;;57.60;27.02;;;;;;;2.11;100.00;100955.61;3631060;79;26320;-88
2022/11/28 16:15:05;;;;;;;60.23;30.70;;;;;;;2.07;100.00;100956.78;3624700;80;98991;-86
2022/11/28 16:20:22;;;;;;;53.50;27.50;;;;;;;2.05;100.00;100964.45;3627496;80;25790;-89
2022/11/28 16:25:26;;;;;;;53.13;26.83;;;;;;;2.01;100.00;100959.92;3623744;80;98669;-89
2022/11/28 16:30:44;;;;;;;58.33;28.43;;;;;;;1.97;100.00;100959.73;3639224;79;26257;-87
2022/11/28 16:35:45;;;;;;;54.63;25.97;;;;;;;1.93;100.00;100958.77;3617401;80;99033;-87
2022/11/28 16:40:46;;;;;;;51.53;24.73;;;;;;;1.91;100.00;100962.89;3626634;81;33233;-89
2022/11/28 16:45:59;;;;;;;59.37;30.77;;;;;;;1.90;100.00;100976.19;3606039;80;99045;-87
2022/11/28 16:51:26;;;;;;;70.30;32.10;;;;;;;1.87;100.00;100964.03;3626262;81;25738;-88
2022/11/28 16:56:35;;;;;;;58.60;27.77;;;;;;;1.88;100.00;100961.59;3626922;79;98924;-87
2022/11/28 17:01:37;;;;;;;52.53;27.40;;;;;;;1.88;100.00;100971.63;3624324;79;25915;-89
2022/11/28 17:06:38;;;;;;;52.55;24.67;;;;;;;1.86;100.00;100967.86;3617248;79;98707;-88
2022/11/28 17:11:43;;;;;;;62.60;28.97;;;;;;;1.86;100.00;100964.36;3637588;79;34058;-88
2022/11/28 17:16:44;;;;;;;57.57;28.13;;;;;;;1.87;100.00;100954.53;3623460;79;98936;-88
2022/11/28 17:21:55;;;;;;;47.97;23.77;;;;;;;1.88;100.00;100952.64;3628589;79;33243;-86
2022/11/28 17:26:56;;;;;;;53.67;28.47;;;;;;;1.89;100.00;100954.23;3622743;79;99242;-87
2022/11/28 17:31:58;;;;;;;61.10;28.47;;;;;;;1.91;100.00;100952.83;3624958;79;33278;-86
2022/11/28 17:37:01;;;;;;;61.77;30.80;;;;;;;1.92;100.00;100953.06;3627948;79;98841;-87
2022/11/28 17:42:02;;;;;;;58.27;28.13;;;;;;;1.94;100.00;100954.94;3631276;79;25814;-86
2022/11/28 17:47:02;;;;;;;54.27;27.27;;;;;;;1.95;100.00;100947.03;3619172;80;98652;-86
2022/11/28 17:52:03;;;;;;;54.97;28.00;;;;;;;1.97;100.00;100947.52;3630150;79;33222;-88
2022/11/28 17:57:04;;;;;;;67.00;34.20;;;;;;;1.99;100.00;100949.94;3622056;79;98715;-88
2022/11/28 18:02:05;;;;;;;63.93;32.20;;;;;;;1.99;100.00;100941.79;3635463;79;33299;-87
2022/11/28 18:07:05;;;;;;;61.00;28.90;;;;;;;2.03;100.00;100951.72;3628951;79;98878;-88
2022/11/28 18:12:06;;;;;;;57.43;29.93;;;;;;;2.05;100.00;100950.88;3625180;79;31807;-88
2022/11/28 18:17:07;;;;;;;57.93;31.70;;;;;;;2.09;100.00;100945.05;3617668;79;98818;-88
2022/11/28 18:22:08;;;;;;;57.87;29.03;;;;;;;2.12;100.00;100946.34;3632453;79;30466;-88
2022/11/28 18:27:09;;;;;;;60.40;29.00;;;;;;;2.14;100.00;100944.15;3623977;79;98895;-87
2022/11/28 18:32:10;;;;;;;57.50;27.77;;;;;;;2.18;100.00;100950.58;3628207;79;32823;-87
2022/11/28 18:37:10;;;;;;;57.53;29.60;;;;;;;2.21;100.00;100949.39;3624785;79;98945;-87
2022/11/28 18:42:11;;;;;;;62.60;29.63;;;;;;;2.25;100.00;100939.50;3616668;79;32771;-87
2022/11/28 18:47:12;;;;;;;63.13;29.83;;;;;;;2.25;100.00;100939.50;3617969;79;98824;-88
2022/11/28 18:52:13;;;;;;;65.20;28.70;;;;;;;2.31;100.00;100944.27;3631530;79;32218;-87
2022/11/28 18:57:14;;;;;;;54.93;28.40;;;;;;;2.34;100.00;100951.23;3619894;79;98725;-87
2022/11/28 19:02:15;;;;;;;54.13;27.90;;;;;;;2.37;100.00;100945.73;3632072;79;29779;-86
2022/11/28 19:07:16;;;;;;;54.80;27.50;;;;;;;2.42;100.00;100946.43;3637614;79;98903;-87
2022/11/28 19:12:18;;;;;;;55.70;27.93;;;;;;;2.46;100.00;100947.39;3641808;79;34841;-88
2022/11/28 19:17:19;;;;;;;53.10;28.57;;;;;;;2.50;100.00;100943.48;3615027;79;98883;-87
2022/11/28 19:22:21;;;;;;;53.07;27.27;;;;;;;2.55;100.00;100948.25;3627805;79;34949;-87
2022/11/28 19:27:22;;;;;;;59.98;32.23;;;;;;;2.58;100.00;100948.97;3564888;80;99094;-87
2022/11/28 19:32:23;;;;;;;73.40;35.30;;;;;;;2.62;100.00;100952.68;3560324;80;34861;-87
2022/11/28 19:37:24;;;;;;;63.80;31.00;;;;;;;2.65;100.00;100943.92;3553554;80;98821;-88
2022/11/28 19:42:25;;;;;;;58.20;27.03;;;;;;;2.69;100.00;100942.73;3544989;82;35996;-88
2022/11/28 19:47:25;;;;;;;54.23;27.40;;;;;;;2.71;100.00;100942.67;3538772;81;99311;-86
2022/11/28 19:52:27;;;;;;;62.17;28.57;;;;;;;2.73;100.00;100939.06;3547708;81;34990;-87
2022/11/28 19:57:28;;;;;;;51.47;25.93;;;;;;;2.77;100.00;100946.04;3499215;82;98879;-87
2022/11/28 20:02:29;;;;;;;48.98;24.40;;;;;;;2.79;100.00;100947.33;3511921;82;34873;-87
2022/11/28 20:07:30;;;;;;;53.00;26.37;;;;;;;2.80;100.00;100939.99;3492523;82;98835;-88
2022/11/28 20:12:30;;;;;;;48.52;26.02;;;;;;;2.82;100.00;100949.44;3523117;82;34876;-86
2022/11/28 20:17:31;;;;;;;55.47;25.90;;;;;;;2.83;100.00;100947.50;3535515;81;98711;-87
2022/11/28 20:22:34;;;;;;;49.80;25.73;;;;;;;2.83;100.00;100944.23;3564656;81;33259;-87
2022/11/28 20:27:34;;;;;;;45.05;22.55;;;;;;;2.85;100.00;100948.01;3543977;81;98824;-87
2022/11/28 20:32:35;;;;;;;47.00;23.00;;;;;;;2.87;100.00;100945.77;3555292;81;25948;-87
2022/11/28 20:37:38;;;;;;;45.70;24.67;;;;;;;2.86;100.00;100934.66;3567396;79;98934;-86
2022/11/28 20:42:39;;;;;;;48.05;25.85;;;;;;;2.86;100.00;100942.27;3604586;79;33566;-87
2022/11/28 20:47:40;;;;;;;46.13;24.97;;;;;;;2.87;100.00;100942.51;3579753;79;99153;-87
2022/11/28 20:52:41;;;;;;;51.95;27.27;;;;;;;2.87;100.00;100943.86;3614541;79;32483;-87
2022/11/28 20:57:42;;;;;;;54.50;28.17;;;;;;;2.85;100.00;100940.64;3606416;79;98691;-87
2022/11/28 21:02:44;;;;;;;55.67;26.20;;;;;;;2.83;100.00;100939.34;3609196;79;32571;-89
2022/11/28 21:07:45;;;;;;;58.17;27.37;;;;;;;2.80;100.00;100935.91;3606939;79;98826;-87
2022/11/28 21:12:46;;;;;;;54.20;28.37;;;;;;;2.78;100.00;100934.08;3613179;79;32493;-88
2022/11/28 21:17:46;;;;;;;53.57;25.13;;;;;;;2.74;100.00;100928.44;3615333;79;98661;-88
2022/11/28 21:22:47;;;;;;;53.30;26.37;;;;;;;2.71;100.00;100933.70;3622662;79;32579;-89
2022/11/28 21:27:48;;;;;;;52.30;25.63;;;;;;;2.65;100.00;100939.84;3612287;79;98934;-89
2022/11/28 21:32:49;;;;;;;56.18;25.92;;;;;;;2.59;100.00;100932.13;3613353;79;32791;-87
2022/11/28 21:37:50;;;;;;;52.70;25.43;;;;;;;2.51;100.00;100930.96;3606754;79;99175;-88
2022/11/28 21:42:51;;;;;;;51.17;24.70;;;;;;;2.46;100.00;100935.16;3595484;81;26144;-88
2022/11/28 21:47:52;;;;;;;53.80;26.47;;;;;;;2.40;100.00;100930.20;3601861;80;99155;-88
2022/11/28 21:52:53;;;;;;;52.87;27.50;;;;;;;2.34;100.00;100936.30;3606570;80;26860;-88
2022/11/28 21:57:54;;;;;;;56.50;29.77;;;;;;;2.30;100.00;100936.66;3605851;80;98805;-87
2022/11/28 22:02:54;;;;;;;48.90;23.93;;;;;;;2.27;100.00;100932.41;3603086;80;26622;-86
2022/11/28 22:07:55;;;;;;;46.27;22.43;;;;;;;2.25;100.00;100936.00;3593015;80;98770;-86
2022/11/28 22:12:57;;;;;;;52.77;24.70;;;;;;;2.25;100.00;100927.85;3609605;80;26060;-85
2022/11/28 22:17:57;;;;;;;50.15;22.80;;;;;;;2.24;100.00;100933.83;3598324;80;98696;-85
2022/11/28 22:22:58;;;;;;;47.33;23.05;;;;;;;2.25;100.00;100931.93;3612337;80;33219;-86
2022/11/28 22:28:01;;;;;;;50.90;25.17;;;;;;;2.27;100.00;100927.80;3599021;80;98623;-87
2022/11/28 22:33:01;;;;;;;50.40;25.37;;;;;;;2.28;100.00;100926.67;3610612;80;25884;-85
2022/11/28 22:38:02;;;;;;;58.60;24.97;;;;;;;2.31;100.00;100936.93;3590152;79;98538;-88
2022/11/28 22:43:04;;;;;;;49.93;25.87;;;;;;;2.34;100.00;100932.77;3619161;79;33730;-87
2022/11/28 22:48:05;;;;;;;51.90;25.37;;;;;;;2.37;100.00;100931.61;3606064;79;98524;-88
2022/11/28 22:53:06;;;;;;;50.03;24.03;;;;;;;2.40;100.00;100931.55;3608137;79;34236;-86
2022/11/28 22:58:07;;;;;;;48.37;24.43;;;;;;;2.43;100.00;100933.09;3603778;79;98346;-86
2022/11/28 23:03:07;;;;;;;46.50;23.07;;;;;;;2.48;100.00;100941.11;3606688;79;98873;-88
2022/11/28 23:08:08;;;;;;;46.60;23.23;;;;;;;2.52;100.00;100935.85;3609533;79;33156;-86
2022/11/28 23:13:09;;;;;;;52.07;27.03;;;;;;;2.55;100.00;100932.50;3605279;79;99153;-86
2022/11/28 23:18:10;;;;;;;49.30;24.13;;;;;;;2.58;100.00;100936.75;3614855;79;32464;-85